sensor_id;sensor_type;location;lat;lon;timestamp;P1;durP1;ratioP1;P2;durP2;ratioP2
8654;SDS011;13500;52.514;13.462;2023-10-19T00:02:07;16.60;;;11.57;;
8654;SDS011;13500;52.514;13.462;2023-10-19T00:04:34;13.90;;;11.37;;
8654;SDS011;13500;52.514;13.462;2023-10-19T00:07:04;14.07;;;11.43;;
8654;SDS011;13500;52.514;13.462;2023-10-19T00:09:34;16.00;;;11.40;;
8654;SDS011;13500;52.514;13.462;2023-10-19T00:12:06;16.20;;;11.83;;
8654;SDS011;13500;52.514;13.462;2023-10-19T00:14:35;16.47;;;11.73;;
8654;SDS011;13500;52.514;13.462;2023-10-19T00:17:03;14.33;;;11.63;;
8654;SDS011;13500;52.514;13.462;2023-10-19T00:19:32;15.20;;;11.40;;
8654;SDS011;13500;52.514;13.462;2023-10-19T00:22:07;15.33;;;11.80;;
8654;SDS011;13500;52.514;13.462;2023-10-19T00:24:35;18.27;;;11.70;;
8654;SDS011;13500;52.514;13.462;2023-10-19T00:27:03;16.27;;;11.70;;
8654;SDS011;13500;52.514;13.462;2023-10-19T00:29:42;15.63;;;11.77;;
8654;SDS011;13500;52.514;13.462;2023-10-19T00:32:15;14.20;;;11.23;;
8654;SDS011;13500;52.514;13.462;2023-10-19T00:34:45;15.10;;;11.20;;
8654;SDS011;13500;52.514;13.462;2023-10-19T00:37:20;16.23;;;11.23;;
8654;SDS011;13500;52.514;13.462;2023-10-19T00:39:53;14.60;;;11.13;;
8654;SDS011;13500;52.514;13.462;2023-10-19T00:42:22;14.23;;;11.77;;
8654;SDS011;13500;52.514;13.462;2023-10-19T00:44:56;17.10;;;11.67;;
8654;SDS011;13500;52.514;13.462;2023-10-19T00:47:31;16.47;;;11.33;;
8654;SDS011;13500;52.514;13.462;2023-10-19T00:50:07;15.67;;;12.20;;
8654;SDS011;13500;52.514;13.462;2023-10-19T00:52:43;17.67;;;12.53;;
8654;SDS011;13500;52.514;13.462;2023-10-19T00:55:16;16.50;;;11.60;;
8654;SDS011;13500;52.514;13.462;2023-10-19T00:57:47;16.07;;;12.60;;
8654;SDS011;13500;52.514;13.462;2023-10-19T01:00:16;16.27;;;13.30;;
8654;SDS011;13500;52.514;13.462;2023-10-19T01:02:57;16.03;;;12.57;;
8654;SDS011;13500;52.514;13.462;2023-10-19T01:05:31;19.40;;;13.00;;
8654;SDS011;13500;52.514;13.462;2023-10-19T01:08:05;20.37;;;13.63;;
8654;SDS011;13500;52.514;13.462;2023-10-19T01:10:46;16.90;;;12.10;;
8654;SDS011;13500;52.514;13.462;2023-10-19T01:13:18;16.90;;;12.90;;
8654;SDS011;13500;52.514;13.462;2023-10-19T01:15:54;15.23;;;11.83;;
8654;SDS011;13500;52.514;13.462;2023-10-19T01:18:23;16.23;;;12.93;;
8654;SDS011;13500;52.514;13.462;2023-10-19T01:20:55;19.03;;;13.47;;
8654;SDS011;13500;52.514;13.462;2023-10-19T01:23:25;16.23;;;12.60;;
8654;SDS011;13500;52.514;13.462;2023-10-19T01:25:55;15.83;;;12.40;;
8654;SDS011;13500;52.514;13.462;2023-10-19T01:28:29;17.17;;;12.83;;
8654;SDS011;13500;52.514;13.462;2023-10-19T01:31:10;16.47;;;11.93;;
8654;SDS011;13500;52.514;13.462;2023-10-19T01:33:49;17.57;;;12.93;;
8654;SDS011;13500;52.514;13.462;2023-10-19T01:36:17;16.97;;;12.83;;
8654;SDS011;13500;52.514;13.462;2023-10-19T01:38:53;16.57;;;12.40;;
8654;SDS011;13500;52.514;13.462;2023-10-19T01:41:22;17.73;;;13.37;;
8654;SDS011;13500;52.514;13.462;2023-10-19T01:43:52;17.80;;;13.20;;
8654;SDS011;13500;52.514;13.462;2023-10-19T01:46:21;18.57;;;12.73;;
8654;SDS011;13500;52.514;13.462;2023-10-19T01:48:51;18.53;;;13.27;;
8654;SDS011;13500;52.514;13.462;2023-10-19T01:51:22;18.17;;;12.77;;
8654;SDS011;13500;52.514;13.462;2023-10-19T01:53:51;17.07;;;12.53;;
8654;SDS011;13500;52.514;13.462;2023-10-19T01:56:19;19.73;;;13.40;;
8654;SDS011;13500;52.514;13.462;2023-10-19T01:58:48;18.33;;;12.80;;
8654;SDS011;13500;52.514;13.462;2023-10-19T02:01:18;17.43;;;13.33;;
8654;SDS011;13500;52.514;13.462;2023-10-19T02:03:56;15.67;;;12.57;;
8654;SDS011;13500;52.514;13.462;2023-10-19T02:06:27;19.80;;;12.83;;
8654;SDS011;13500;52.514;13.462;2023-10-19T02:09:02;18.87;;;14.20;;
8654;SDS011;13500;52.514;13.462;2023-10-19T02:11:45;21.23;;;13.30;;
8654;SDS011;13500;52.514;13.462;2023-10-19T02:14:15;18.10;;;13.50;;
8654;SDS011;13500;52.514;13.462;2023-10-19T02:16:46;19.40;;;13.53;;
8654;SDS011;13500;52.514;13.462;2023-10-19T02:19:13;20.17;;;14.40;;
8654;SDS011;13500;52.514;13.462;2023-10-19T02:21:42;20.27;;;13.83;;
8654;SDS011;13500;52.514;13.462;2023-10-19T02:24:09;19.53;;;13.67;;
8654;SDS011;13500;52.514;13.462;2023-10-19T02:26:41;18.80;;;13.40;;
8654;SDS011;13500;52.514;13.462;2023-10-19T02:29:10;19.23;;;13.67;;
8654;SDS011;13500;52.514;13.462;2023-10-19T02:31:39;16.57;;;12.97;;
8654;SDS011;13500;52.514;13.462;2023-10-19T02:34:07;17.13;;;13.10;;
8654;SDS011;13500;52.514;13.462;2023-10-19T02:36:37;20.30;;;13.73;;
8654;SDS011;13500;52.514;13.462;2023-10-19T02:39:05;21.73;;;14.43;;
8654;SDS011;13500;52.514;13.462;2023-10-19T02:41:35;20.07;;;13.73;;
8654;SDS011;13500;52.514;13.462;2023-10-19T02:44:02;20.47;;;14.53;;
8654;SDS011;13500;52.514;13.462;2023-10-19T02:46:37;17.80;;;13.30;;
8654;SDS011;13500;52.514;13.462;2023-10-19T02:49:06;18.37;;;13.23;;
8654;SDS011;13500;52.514;13.462;2023-10-19T02:51:37;17.77;;;12.67;;
8654;SDS011;13500;52.514;13.462;2023-10-19T02:54:06;16.40;;;13.27;;
8654;SDS011;13500;52.514;13.462;2023-10-19T02:56:34;17.17;;;13.93;;
8654;SDS011;13500;52.514;13.462;2023-10-19T02:59:03;22.13;;;13.80;;
8654;SDS011;13500;52.514;13.462;2023-10-19T03:01:31;17.30;;;13.90;;
8654;SDS011;13500;52.514;13.462;2023-10-19T03:04:02;18.57;;;14.03;;
8654;SDS011;13500;52.514;13.462;2023-10-19T03:06:31;18.97;;;14.10;;
8654;SDS011;13500;52.514;13.462;2023-10-19T03:09:03;22.27;;;14.47;;
8654;SDS011;13500;52.514;13.462;2023-10-19T03:11:31;20.97;;;14.27;;
8654;SDS011;13500;52.514;13.462;2023-10-19T03:14:00;18.00;;;14.33;;
8654;SDS011;13500;52.514;13.462;2023-10-19T03:16:32;17.63;;;13.97;;
8654;SDS011;13500;52.514;13.462;2023-10-19T03:19:03;19.53;;;14.00;;
8654;SDS011;13500;52.514;13.462;2023-10-19T03:21:30;18.93;;;13.83;;
8654;SDS011;13500;52.514;13.462;2023-10-19T03:24:08;16.60;;;14.10;;
8654;SDS011;13500;52.514;13.462;2023-10-19T03:26:39;17.60;;;13.70;;
8654;SDS011;13500;52.514;13.462;2023-10-19T03:29:14;20.07;;;13.80;;
8654;SDS011;13500;52.514;13.462;2023-10-19T03:31:44;20.77;;;13.90;;
8654;SDS011;13500;52.514;13.462;2023-10-19T03:34:15;19.90;;;14.57;;
8654;SDS011;13500;52.514;13.462;2023-10-19T03:36:44;19.80;;;14.63;;
8654;SDS011;13500;52.514;13.462;2023-10-19T03:39:12;17.30;;;13.87;;
8654;SDS011;13500;52.514;13.462;2023-10-19T03:41:44;19.63;;;14.43;;
8654;SDS011;13500;52.514;13.462;2023-10-19T03:44:12;21.40;;;14.80;;
8654;SDS011;13500;52.514;13.462;2023-10-19T03:46:46;20.13;;;15.27;;
8654;SDS011;13500;52.514;13.462;2023-10-19T03:49:26;21.87;;;14.87;;
8654;SDS011;13500;52.514;13.462;2023-10-19T03:52:00;21.00;;;14.33;;
8654;SDS011;13500;52.514;13.462;2023-10-19T03:54:29;19.40;;;14.63;;
8654;SDS011;13500;52.514;13.462;2023-10-19T03:56:59;24.83;;;15.87;;
8654;SDS011;13500;52.514;13.462;2023-10-19T03:59:32;19.80;;;14.37;;
8654;SDS011;13500;52.514;13.462;2023-10-19T04:02:01;19.60;;;14.00;;
8654;SDS011;13500;52.514;13.462;2023-10-19T04:04:38;18.93;;;14.50;;
8654;SDS011;13500;52.514;13.462;2023-10-19T04:07:10;17.90;;;14.57;;
8654;SDS011;13500;52.514;13.462;2023-10-19T04:09:44;19.87;;;15.10;;
8654;SDS011;13500;52.514;13.462;2023-10-19T04:12:26;22.17;;;15.07;;
8654;SDS011;13500;52.514;13.462;2023-10-19T04:14:57;19.10;;;15.10;;
8654;SDS011;13500;52.514;13.462;2023-10-19T04:17:27;20.27;;;14.70;;
8654;SDS011;13500;52.514;13.462;2023-10-19T04:19:57;18.77;;;15.20;;
8654;SDS011;13500;52.514;13.462;2023-10-19T04:22:25;21.30;;;15.33;;
8654;SDS011;13500;52.514;13.462;2023-10-19T04:24:53;19.93;;;14.33;;
8654;SDS011;13500;52.514;13.462;2023-10-19T04:27:21;22.30;;;14.57;;
8654;SDS011;13500;52.514;13.462;2023-10-19T04:29:50;19.53;;;15.37;;
8654;SDS011;13500;52.514;13.462;2023-10-19T04:32:18;20.27;;;14.63;;
8654;SDS011;13500;52.514;13.462;2023-10-19T04:34:52;19.83;;;14.87;;
8654;SDS011;13500;52.514;13.462;2023-10-19T04:37:21;23.63;;;16.20;;
8654;SDS011;13500;52.514;13.462;2023-10-19T04:39:50;20.07;;;14.27;;
8654;SDS011;13500;52.514;13.462;2023-10-19T04:42:19;20.97;;;14.63;;
8654;SDS011;13500;52.514;13.462;2023-10-19T04:44:49;21.83;;;15.53;;
8654;SDS011;13500;52.514;13.462;2023-10-19T04:47:17;20.60;;;15.67;;
8654;SDS011;13500;52.514;13.462;2023-10-19T04:49:45;20.27;;;15.30;;
8654;SDS011;13500;52.514;13.462;2023-10-19T04:52:13;20.57;;;15.47;;
8654;SDS011;13500;52.514;13.462;2023-10-19T04:54:42;20.63;;;15.53;;
8654;SDS011;13500;52.514;13.462;2023-10-19T04:57:10;19.73;;;14.90;;
8654;SDS011;13500;52.514;13.462;2023-10-19T04:59:38;21.47;;;15.43;;
8654;SDS011;13500;52.514;13.462;2023-10-19T05:02:06;20.07;;;16.33;;
8654;SDS011;13500;52.514;13.462;2023-10-19T05:04:34;21.07;;;15.33;;
8654;SDS011;13500;52.514;13.462;2023-10-19T05:07:03;24.50;;;16.50;;
8654;SDS011;13500;52.514;13.462;2023-10-19T05:09:31;23.73;;;15.77;;
8654;SDS011;13500;52.514;13.462;2023-10-19T05:12:01;25.07;;;16.10;;
8654;SDS011;13500;52.514;13.462;2023-10-19T05:14:29;21.87;;;15.87;;
8654;SDS011;13500;52.514;13.462;2023-10-19T05:16:57;22.03;;;16.60;;
8654;SDS011;13500;52.514;13.462;2023-10-19T05:19:25;21.80;;;15.67;;
8654;SDS011;13500;52.514;13.462;2023-10-19T05:21:53;22.17;;;16.57;;
8654;SDS011;13500;52.514;13.462;2023-10-19T05:24:21;21.77;;;16.37;;
8654;SDS011;13500;52.514;13.462;2023-10-19T05:26:49;23.13;;;16.07;;
8654;SDS011;13500;52.514;13.462;2023-10-19T05:29:18;22.57;;;17.20;;
8654;SDS011;13500;52.514;13.462;2023-10-19T05:31:46;20.87;;;16.53;;
8654;SDS011;13500;52.514;13.462;2023-10-19T05:34:20;22.30;;;16.97;;
8654;SDS011;13500;52.514;13.462;2023-10-19T05:36:48;22.87;;;16.93;;
8654;SDS011;13500;52.514;13.462;2023-10-19T05:39:16;22.83;;;16.83;;
8654;SDS011;13500;52.514;13.462;2023-10-19T05:41:45;28.03;;;17.97;;
8654;SDS011;13500;52.514;13.462;2023-10-19T05:44:13;24.83;;;17.43;;
8654;SDS011;13500;52.514;13.462;2023-10-19T05:46:43;25.37;;;16.97;;
8654;SDS011;13500;52.514;13.462;2023-10-19T05:49:11;24.57;;;16.83;;
8654;SDS011;13500;52.514;13.462;2023-10-19T05:51:39;25.10;;;17.80;;
8654;SDS011;13500;52.514;13.462;2023-10-19T05:54:08;22.13;;;16.33;;
8654;SDS011;13500;52.514;13.462;2023-10-19T05:56:36;25.63;;;17.60;;
8654;SDS011;13500;52.514;13.462;2023-10-19T05:59:04;25.70;;;16.40;;
8654;SDS011;13500;52.514;13.462;2023-10-19T06:01:33;22.67;;;17.17;;
8654;SDS011;13500;52.514;13.462;2023-10-19T06:04:02;22.40;;;17.43;;
8654;SDS011;13500;52.514;13.462;2023-10-19T06:06:32;23.60;;;17.17;;
8654;SDS011;13500;52.514;13.462;2023-10-19T06:09:00;24.70;;;17.67;;
8654;SDS011;13500;52.514;13.462;2023-10-19T06:11:29;25.40;;;17.87;;
8654;SDS011;13500;52.514;13.462;2023-10-19T06:13:58;24.77;;;17.27;;
8654;SDS011;13500;52.514;13.462;2023-10-19T06:16:27;25.23;;;19.20;;
8654;SDS011;13500;52.514;13.462;2023-10-19T06:18:55;26.50;;;18.10;;
8654;SDS011;13500;52.514;13.462;2023-10-19T06:21:25;24.33;;;17.97;;
8654;SDS011;13500;52.514;13.462;2023-10-19T06:23:55;23.80;;;18.30;;
8654;SDS011;13500;52.514;13.462;2023-10-19T06:26:23;25.60;;;18.87;;
8654;SDS011;13500;52.514;13.462;2023-10-19T06:28:51;29.67;;;19.37;;
8654;SDS011;13500;52.514;13.462;2023-10-19T06:31:23;24.73;;;18.47;;
8654;SDS011;13500;52.514;13.462;2023-10-19T06:33:52;28.80;;;19.93;;
8654;SDS011;13500;52.514;13.462;2023-10-19T06:36:20;25.20;;;18.83;;
8654;SDS011;13500;52.514;13.462;2023-10-19T06:38:49;24.60;;;17.37;;
8654;SDS011;13500;52.514;13.462;2023-10-19T06:41:17;23.97;;;18.43;;
8654;SDS011;13500;52.514;13.462;2023-10-19T06:43:46;25.73;;;19.60;;
8654;SDS011;13500;52.514;13.462;2023-10-19T06:46:14;26.43;;;18.33;;
8654;SDS011;13500;52.514;13.462;2023-10-19T06:48:42;25.73;;;19.97;;
8654;SDS011;13500;52.514;13.462;2023-10-19T06:51:10;26.43;;;18.50;;
8654;SDS011;13500;52.514;13.462;2023-10-19T06:53:38;25.40;;;18.93;;
8654;SDS011;13500;52.514;13.462;2023-10-19T06:56:07;25.90;;;18.07;;
8654;SDS011;13500;52.514;13.462;2023-10-19T06:58:35;27.77;;;18.67;;
8654;SDS011;13500;52.514;13.462;2023-10-19T07:01:06;26.53;;;19.67;;
8654;SDS011;13500;52.514;13.462;2023-10-19T07:03:35;24.77;;;18.40;;
8654;SDS011;13500;52.514;13.462;2023-10-19T07:06:03;28.93;;;19.43;;
8654;SDS011;13500;52.514;13.462;2023-10-19T07:08:37;26.53;;;19.10;;
8654;SDS011;13500;52.514;13.462;2023-10-19T07:11:05;27.67;;;18.70;;
8654;SDS011;13500;52.514;13.462;2023-10-19T07:13:35;25.23;;;18.73;;
8654;SDS011;13500;52.514;13.462;2023-10-19T07:16:03;24.03;;;18.40;;
8654;SDS011;13500;52.514;13.462;2023-10-19T07:18:31;25.17;;;17.80;;
8654;SDS011;13500;52.514;13.462;2023-10-19T07:20:59;24.30;;;18.07;;
8654;SDS011;13500;52.514;13.462;2023-10-19T07:23:30;23.93;;;18.13;;
8654;SDS011;13500;52.514;13.462;2023-10-19T07:25:58;26.20;;;18.80;;
8654;SDS011;13500;52.514;13.462;2023-10-19T07:28:27;24.47;;;17.47;;
8654;SDS011;13500;52.514;13.462;2023-10-19T07:30:56;30.10;;;20.47;;
8654;SDS011;13500;52.514;13.462;2023-10-19T07:33:26;21.97;;;16.67;;
8654;SDS011;13500;52.514;13.462;2023-10-19T07:35:54;24.10;;;17.77;;
8654;SDS011;13500;52.514;13.462;2023-10-19T07:38:23;24.40;;;16.83;;
8654;SDS011;13500;52.514;13.462;2023-10-19T07:40:52;24.40;;;17.90;;
8654;SDS011;13500;52.514;13.462;2023-10-19T07:43:20;21.67;;;16.77;;
8654;SDS011;13500;52.514;13.462;2023-10-19T07:45:49;27.37;;;17.93;;
8654;SDS011;13500;52.514;13.462;2023-10-19T07:48:20;25.50;;;16.57;;
8654;SDS011;13500;52.514;13.462;2023-10-19T07:50:50;24.40;;;17.97;;
8654;SDS011;13500;52.514;13.462;2023-10-19T07:53:19;25.97;;;16.60;;
8654;SDS011;13500;52.514;13.462;2023-10-19T07:55:48;22.43;;;17.20;;
8654;SDS011;13500;52.514;13.462;2023-10-19T07:58:16;22.30;;;16.27;;
8654;SDS011;13500;52.514;13.462;2023-10-19T08:00:44;21.57;;;16.23;;
8654;SDS011;13500;52.514;13.462;2023-10-19T08:03:13;25.27;;;17.33;;
8654;SDS011;13500;52.514;13.462;2023-10-19T08:05:44;20.50;;;15.73;;
8654;SDS011;13500;52.514;13.462;2023-10-19T08:08:12;23.20;;;16.07;;
8654;SDS011;13500;52.514;13.462;2023-10-19T08:10:40;21.97;;;16.67;;
8654;SDS011;13500;52.514;13.462;2023-10-19T08:13:08;23.30;;;16.27;;
8654;SDS011;13500;52.514;13.462;2023-10-19T08:15:37;22.00;;;17.07;;
8654;SDS011;13500;52.514;13.462;2023-10-19T08:18:05;21.13;;;16.73;;
8654;SDS011;13500;52.514;13.462;2023-10-19T08:20:33;20.97;;;16.40;;
8654;SDS011;13500;52.514;13.462;2023-10-19T08:23:05;22.50;;;16.20;;
8654;SDS011;13500;52.514;13.462;2023-10-19T08:25:33;21.87;;;16.70;;
8654;SDS011;13500;52.514;13.462;2023-10-19T08:28:20;22.10;;;15.83;;
8654;SDS011;13500;52.514;13.462;2023-10-19T08:30:49;23.17;;;16.93;;
8654;SDS011;13500;52.514;13.462;2023-10-19T08:33:24;23.83;;;16.67;;
8654;SDS011;13500;52.514;13.462;2023-10-19T08:35:53;22.73;;;16.63;;
8654;SDS011;13500;52.514;13.462;2023-10-19T08:38:23;23.07;;;17.23;;
8654;SDS011;13500;52.514;13.462;2023-10-19T08:40:51;18.93;;;15.00;;
8654;SDS011;13500;52.514;13.462;2023-10-19T08:43:19;22.73;;;16.33;;
8654;SDS011;13500;52.514;13.462;2023-10-19T08:45:48;22.33;;;15.03;;
8654;SDS011;13500;52.514;13.462;2023-10-19T08:48:16;23.70;;;16.37;;
8654;SDS011;13500;52.514;13.462;2023-10-19T08:50:44;21.73;;;16.53;;
8654;SDS011;13500;52.514;13.462;2023-10-19T08:53:14;20.73;;;15.37;;
8654;SDS011;13500;52.514;13.462;2023-10-19T08:55:47;21.60;;;15.90;;
8654;SDS011;13500;52.514;13.462;2023-10-19T08:58:17;20.97;;;15.57;;
8654;SDS011;13500;52.514;13.462;2023-10-19T09:00:46;20.50;;;15.87;;
8654;SDS011;13500;52.514;13.462;2023-10-19T09:03:17;20.73;;;15.93;;
8654;SDS011;13500;52.514;13.462;2023-10-19T09:05:46;20.97;;;15.47;;
8654;SDS011;13500;52.514;13.462;2023-10-19T09:08:15;24.10;;;16.00;;
8654;SDS011;13500;52.514;13.462;2023-10-19T09:10:47;22.20;;;15.63;;
8654;SDS011;13500;52.514;13.462;2023-10-19T09:13:16;21.87;;;15.47;;
8654;SDS011;13500;52.514;13.462;2023-10-19T09:15:47;20.80;;;15.77;;
8654;SDS011;13500;52.514;13.462;2023-10-19T09:18:17;23.57;;;16.00;;
8654;SDS011;13500;52.514;13.462;2023-10-19T09:20:46;21.13;;;15.57;;
8654;SDS011;13500;52.514;13.462;2023-10-19T09:23:20;20.43;;;14.67;;
8654;SDS011;13500;52.514;13.462;2023-10-19T09:25:50;20.57;;;16.27;;
8654;SDS011;13500;52.514;13.462;2023-10-19T09:28:20;21.07;;;15.97;;
8654;SDS011;13500;52.514;13.462;2023-10-19T09:30:48;20.73;;;15.93;;
8654;SDS011;13500;52.514;13.462;2023-10-19T09:33:17;20.70;;;14.93;;
8654;SDS011;13500;52.514;13.462;2023-10-19T09:35:46;21.80;;;15.20;;
8654;SDS011;13500;52.514;13.462;2023-10-19T09:38:15;21.77;;;15.80;;
8654;SDS011;13500;52.514;13.462;2023-10-19T09:40:48;20.87;;;15.43;;
8654;SDS011;13500;52.514;13.462;2023-10-19T09:43:21;19.23;;;14.77;;
8654;SDS011;13500;52.514;13.462;2023-10-19T09:45:53;18.40;;;14.60;;
8654;SDS011;13500;52.514;13.462;2023-10-19T09:48:27;19.60;;;14.90;;
8654;SDS011;13500;52.514;13.462;2023-10-19T09:50:55;20.63;;;16.10;;
8654;SDS011;13500;52.514;13.462;2023-10-19T09:53:25;19.23;;;15.33;;
8654;SDS011;13500;52.514;13.462;2023-10-19T09:55:53;19.93;;;15.00;;
8654;SDS011;13500;52.514;13.462;2023-10-19T09:58:24;19.70;;;14.63;;
8654;SDS011;13500;52.514;13.462;2023-10-19T10:00:55;21.40;;;15.17;;
8654;SDS011;13500;52.514;13.462;2023-10-19T10:03:44;21.97;;;15.67;;
8654;SDS011;13500;52.514;13.462;2023-10-19T10:06:13;18.70;;;14.70;;
8654;SDS011;13500;52.514;13.462;2023-10-19T10:08:42;19.90;;;15.80;;
8654;SDS011;13500;52.514;13.462;2023-10-19T10:11:20;19.37;;;15.63;;
8654;SDS011;13500;52.514;13.462;2023-10-19T10:13:51;19.00;;;15.00;;
8654;SDS011;13500;52.514;13.462;2023-10-19T10:16:24;22.73;;;15.60;;
8654;SDS011;13500;52.514;13.462;2023-10-19T10:18:56;23.60;;;14.57;;
8654;SDS011;13500;52.514;13.462;2023-10-19T10:21:27;22.10;;;15.77;;
8654;SDS011;13500;52.514;13.462;2023-10-19T10:23:56;18.13;;;15.00;;
8654;SDS011;13500;52.514;13.462;2023-10-19T10:26:26;18.77;;;14.93;;
8654;SDS011;13500;52.514;13.462;2023-10-19T10:29:13;22.53;;;15.10;;
8654;SDS011;13500;52.514;13.462;2023-10-19T10:31:46;20.90;;;14.90;;
8654;SDS011;13500;52.514;13.462;2023-10-19T10:37:10;22.27;;;15.87;;
8654;SDS011;13500;52.514;13.462;2023-10-19T10:39:39;22.20;;;17.30;;
8654;SDS011;13500;52.514;13.462;2023-10-19T10:42:09;23.00;;;17.20;;
8654;SDS011;13500;52.514;13.462;2023-10-19T10:44:39;23.07;;;17.50;;
8654;SDS011;13500;52.514;13.462;2023-10-19T10:47:08;23.30;;;18.23;;
8654;SDS011;13500;52.514;13.462;2023-10-19T10:49:47;23.80;;;17.70;;
8654;SDS011;13500;52.514;13.462;2023-10-19T10:52:25;21.73;;;17.13;;
8654;SDS011;13500;52.514;13.462;2023-10-19T10:54:56;24.87;;;18.47;;
8654;SDS011;13500;52.514;13.462;2023-10-19T10:57:29;26.07;;;19.20;;
8654;SDS011;13500;52.514;13.462;2023-10-19T11:00:07;25.77;;;17.80;;
8654;SDS011;13500;52.514;13.462;2023-10-19T11:02:42;22.07;;;16.67;;
8654;SDS011;13500;52.514;13.462;2023-10-19T11:05:14;21.33;;;16.97;;
8654;SDS011;13500;52.514;13.462;2023-10-19T11:10:32;25.67;;;18.30;;
8654;SDS011;13500;52.514;13.462;2023-10-19T11:13:01;24.30;;;18.50;;
8654;SDS011;13500;52.514;13.462;2023-10-19T11:15:31;22.87;;;18.53;;
8654;SDS011;13500;52.514;13.462;2023-10-19T11:17:59;23.10;;;17.57;;
8654;SDS011;13500;52.514;13.462;2023-10-19T11:20:28;26.33;;;18.50;;
8654;SDS011;13500;52.514;13.462;2023-10-19T11:22:56;25.27;;;18.80;;
8654;SDS011;13500;52.514;13.462;2023-10-19T11:25:27;24.17;;;18.50;;
8654;SDS011;13500;52.514;13.462;2023-10-19T11:27:56;25.90;;;19.67;;
8654;SDS011;13500;52.514;13.462;2023-10-19T11:30:25;26.53;;;20.47;;
8654;SDS011;13500;52.514;13.462;2023-10-19T11:32:55;25.60;;;19.63;;
8654;SDS011;13500;52.514;13.462;2023-10-19T11:35:24;25.27;;;19.47;;
8654;SDS011;13500;52.514;13.462;2023-10-19T11:37:54;24.53;;;18.97;;
8654;SDS011;13500;52.514;13.462;2023-10-19T11:40:23;28.27;;;22.03;;
8654;SDS011;13500;52.514;13.462;2023-10-19T11:42:52;27.20;;;21.13;;
8654;SDS011;13500;52.514;13.462;2023-10-19T11:45:23;24.23;;;19.57;;
8654;SDS011;13500;52.514;13.462;2023-10-19T11:47:51;27.20;;;20.67;;
8654;SDS011;13500;52.514;13.462;2023-10-19T11:50:21;27.30;;;20.83;;
8654;SDS011;13500;52.514;13.462;2023-10-19T11:52:50;25.90;;;19.67;;
8654;SDS011;13500;52.514;13.462;2023-10-19T11:55:19;29.10;;;21.50;;
8654;SDS011;13500;52.514;13.462;2023-10-19T11:57:47;27.37;;;21.27;;
8654;SDS011;13500;52.514;13.462;2023-10-19T12:00:16;25.83;;;20.13;;
8654;SDS011;13500;52.514;13.462;2023-10-19T12:02:49;29.63;;;20.47;;
8654;SDS011;13500;52.514;13.462;2023-10-19T12:05:18;27.47;;;20.63;;
8654;SDS011;13500;52.514;13.462;2023-10-19T12:07:48;28.37;;;21.17;;
8654;SDS011;13500;52.514;13.462;2023-10-19T12:10:16;27.10;;;21.20;;
8654;SDS011;13500;52.514;13.462;2023-10-19T12:12:44;25.33;;;20.50;;
8654;SDS011;13500;52.514;13.462;2023-10-19T12:15:27;26.33;;;20.63;;
8654;SDS011;13500;52.514;13.462;2023-10-19T12:17:55;24.73;;;20.93;;
8654;SDS011;13500;52.514;13.462;2023-10-19T12:20:24;30.73;;;20.97;;
8654;SDS011;13500;52.514;13.462;2023-10-19T12:22:54;28.90;;;21.83;;
8654;SDS011;13500;52.514;13.462;2023-10-19T12:25:22;29.30;;;22.53;;
8654;SDS011;13500;52.514;13.462;2023-10-19T12:27:59;25.63;;;20.67;;
8654;SDS011;13500;52.514;13.462;2023-10-19T12:30:30;28.67;;;21.20;;
8654;SDS011;13500;52.514;13.462;2023-10-19T12:33:03;28.60;;;21.73;;
8654;SDS011;13500;52.514;13.462;2023-10-19T12:35:34;28.60;;;21.90;;
8654;SDS011;13500;52.514;13.462;2023-10-19T12:38:12;29.30;;;23.17;;
8654;SDS011;13500;52.514;13.462;2023-10-19T12:40:43;27.43;;;21.40;;
8654;SDS011;13500;52.514;13.462;2023-10-19T12:43:13;29.27;;;22.33;;
8654;SDS011;13500;52.514;13.462;2023-10-19T12:45:41;27.90;;;21.97;;
8654;SDS011;13500;52.514;13.462;2023-10-19T12:48:10;25.93;;;21.23;;
8654;SDS011;13500;52.514;13.462;2023-10-19T12:50:39;29.90;;;22.27;;
8654;SDS011;13500;52.514;13.462;2023-10-19T12:53:07;28.40;;;22.07;;
8654;SDS011;13500;52.514;13.462;2023-10-19T12:55:36;29.83;;;22.33;;
8654;SDS011;13500;52.514;13.462;2023-10-19T12:58:05;27.63;;;22.17;;
8654;SDS011;13500;52.514;13.462;2023-10-19T13:00:38;28.87;;;24.20;;
8654;SDS011;13500;52.514;13.462;2023-10-19T13:03:11;28.43;;;21.93;;
8654;SDS011;13500;52.514;13.462;2023-10-19T13:05:43;30.90;;;23.13;;
8654;SDS011;13500;52.514;13.462;2023-10-19T13:08:12;29.13;;;21.93;;
8654;SDS011;13500;52.514;13.462;2023-10-19T13:10:43;28.23;;;22.53;;
8654;SDS011;13500;52.514;13.462;2023-10-19T13:13:12;32.27;;;23.53;;
8654;SDS011;13500;52.514;13.462;2023-10-19T13:15:41;27.77;;;22.73;;
8654;SDS011;13500;52.514;13.462;2023-10-19T13:18:11;27.07;;;22.73;;
8654;SDS011;13500;52.514;13.462;2023-10-19T13:20:46;29.90;;;22.33;;
8654;SDS011;13500;52.514;13.462;2023-10-19T13:23:15;30.30;;;22.30;;
8654;SDS011;13500;52.514;13.462;2023-10-19T13:25:45;31.33;;;23.07;;
8654;SDS011;13500;52.514;13.462;2023-10-19T13:28:20;30.40;;;22.47;;
8654;SDS011;13500;52.514;13.462;2023-10-19T13:30:49;28.03;;;22.13;;
8654;SDS011;13500;52.514;13.462;2023-10-19T13:33:19;30.93;;;21.60;;
8654;SDS011;13500;52.514;13.462;2023-10-19T13:35:48;32.47;;;23.27;;
8654;SDS011;13500;52.514;13.462;2023-10-19T13:38:17;35.90;;;23.60;;
8654;SDS011;13500;52.514;13.462;2023-10-19T13:40:47;30.30;;;23.27;;
8654;SDS011;13500;52.514;13.462;2023-10-19T13:43:17;30.27;;;22.90;;
8654;SDS011;13500;52.514;13.462;2023-10-19T13:46:03;30.57;;;23.63;;
8654;SDS011;13500;52.514;13.462;2023-10-19T13:48:32;28.33;;;22.53;;
8654;SDS011;13500;52.514;13.462;2023-10-19T13:51:00;29.37;;;23.20;;
8654;SDS011;13500;52.514;13.462;2023-10-19T13:53:38;31.47;;;22.87;;
8654;SDS011;13500;52.514;13.462;2023-10-19T13:56:08;27.57;;;22.07;;
8654;SDS011;13500;52.514;13.462;2023-10-19T13:58:37;27.73;;;22.33;;
8654;SDS011;13500;52.514;13.462;2023-10-19T14:01:06;31.77;;;23.03;;
8654;SDS011;13500;52.514;13.462;2023-10-19T14:03:34;28.03;;;23.90;;
8654;SDS011;13500;52.514;13.462;2023-10-19T14:06:04;29.33;;;23.90;;
8654;SDS011;13500;52.514;13.462;2023-10-19T14:08:32;29.83;;;23.27;;
8654;SDS011;13500;52.514;13.462;2023-10-19T14:11:01;32.87;;;23.43;;
8654;SDS011;13500;52.514;13.462;2023-10-19T14:13:31;29.60;;;23.83;;
8654;SDS011;13500;52.514;13.462;2023-10-19T14:15:59;30.90;;;23.30;;
8654;SDS011;13500;52.514;13.462;2023-10-19T14:18:27;29.73;;;23.73;;
8654;SDS011;13500;52.514;13.462;2023-10-19T14:20:54;33.77;;;22.73;;
8654;SDS011;13500;52.514;13.462;2023-10-19T14:23:22;29.10;;;22.40;;
8654;SDS011;13500;52.514;13.462;2023-10-19T14:25:51;26.77;;;22.63;;
8654;SDS011;13500;52.514;13.462;2023-10-19T14:28:19;30.20;;;23.30;;
8654;SDS011;13500;52.514;13.462;2023-10-19T14:30:49;31.80;;;24.57;;
8654;SDS011;13500;52.514;13.462;2023-10-19T14:33:20;30.87;;;23.83;;
8654;SDS011;13500;52.514;13.462;2023-10-19T14:35:48;34.07;;;25.50;;
8654;SDS011;13500;52.514;13.462;2023-10-19T14:38:17;29.40;;;23.37;;
8654;SDS011;13500;52.514;13.462;2023-10-19T14:40:45;31.13;;;24.03;;
8654;SDS011;13500;52.514;13.462;2023-10-19T14:43:15;32.67;;;23.73;;
8654;SDS011;13500;52.514;13.462;2023-10-19T14:45:43;33.03;;;23.53;;